createdAt,value
2023-04-27T00:01:58.361Z,98563.66
2023-04-27T00:04:53.333Z,98569.66
2023-04-27T00:07:56.921Z,98566.31
2023-04-27T00:10:42.028Z,98566.66
2023-04-27T00:13:27.261Z,98576.53
2023-04-27T00:15:54.284Z,98564.97
2023-04-27T00:18:21.616Z,98561.22
2023-04-27T00:20:48.576Z,98570.44
2023-04-27T00:23:15.543Z,98553.19
2023-04-27T00:25:42.456Z,98563.88
2023-04-27T00:28:09.360Z,98560.84
2023-04-27T00:30:36.385Z,98568.22
2023-04-27T00:33:03.326Z,98559.81
2023-04-27T00:35:30.283Z,98565.28
2023-04-27T00:37:57.207Z,98560.06
2023-04-27T00:40:24.182Z,98567.03
2023-04-27T00:42:51.181Z,98566.66
2023-04-27T00:45:18.147Z,98480.13
2023-04-27T00:47:46.297Z,98568.28
2023-04-27T00:50:13.252Z,98532.69
2023-04-27T00:52:41.074Z,98565.50
2023-04-27T00:55:08.575Z,98569.25
2023-04-27T00:57:35.982Z,98575.06
2023-04-27T01:00:06.858Z,98567.84
2023-04-27T01:02:35.344Z,98576.31
2023-04-27T01:05:20.268Z,98572.56
2023-04-27T01:08:18.539Z,98576.34
2023-04-27T01:11:06.264Z,98573.38
2023-04-27T01:13:48.859Z,98578.09
2023-04-27T01:16:29.736Z,98571.41
2023-04-27T01:18:56.681Z,98572.53
2023-04-27T01:21:23.658Z,98577.78
2023-04-27T01:23:50.721Z,98584.56
2023-04-27T01:26:17.682Z,98582.47
2023-04-27T01:28:44.765Z,98580.97
2023-04-27T01:31:12.328Z,98581.28
2023-04-27T01:33:40.257Z,98585.50
2023-04-27T01:36:08.225Z,98583.59
2023-04-27T01:38:35.437Z,98583.94
2023-04-27T01:41:05.029Z,98591.50
2023-04-27T01:43:32.466Z,98602.31
2023-04-27T01:46:07.663Z,98588.75
2023-04-27T01:48:35.570Z,98591.53
2023-04-27T01:51:02.836Z,98593.50
2023-04-27T01:53:30.345Z,98589.63
2023-04-27T01:55:59.791Z,98590.09
2023-04-27T01:58:27.448Z,98588.56
2023-04-27T02:00:54.501Z,98585.53
2023-04-27T02:03:21.932Z,98589.31
2023-04-27T02:05:49.504Z,98593.66
2023-04-27T02:08:16.441Z,98607.84
2023-04-27T02:10:43.454Z,98581.66
2023-04-27T02:13:10.356Z,98599.44
2023-04-27T02:15:37.470Z,98594.22
2023-04-27T02:18:04.943Z,98606.16
2023-04-27T02:20:33.262Z,98604.06
2023-04-27T02:23:00.183Z,98601.16
2023-04-27T02:25:27.168Z,98597.94
2023-04-27T02:27:54.304Z,98595.41
2023-04-27T02:30:21.845Z,98598.50
2023-04-27T02:32:49.238Z,98594.44
2023-04-27T02:35:16.477Z,98564.19
2023-04-27T02:37:43.487Z,98596.81
2023-04-27T02:40:10.673Z,98591.91
2023-04-27T02:42:39.190Z,98592.09
2023-04-27T02:45:09.474Z,98592.94
2023-04-27T02:47:36.446Z,98596.69
2023-04-27T02:50:04.330Z,98596.03
2023-04-27T02:52:31.332Z,98598.81
2023-04-27T02:54:58.328Z,98590.16
2023-04-27T02:57:25.397Z,98594.63
2023-04-27T02:59:52.364Z,98597.72
2023-04-27T03:02:19.295Z,98590.81
2023-04-27T03:04:46.248Z,98587.63
2023-04-27T03:07:13.200Z,98593.78
2023-04-27T03:09:40.180Z,98599.81
2023-04-27T03:12:07.133Z,98601.63
2023-04-27T03:14:34.031Z,98607.94
2023-04-27T03:17:01.164Z,98594.06
2023-04-27T03:19:28.246Z,98601.63
2023-04-27T03:21:55.339Z,98614.53
2023-04-27T03:24:25.741Z,98610.84
2023-04-27T03:26:52.974Z,98614.22
2023-04-27T03:29:19.886Z,98611.44
2023-04-27T03:31:46.846Z,98613.50
2023-04-27T03:34:13.789Z,98612.53
2023-04-27T03:36:40.654Z,98611.69
2023-04-27T03:39:08.296Z,98622.22
2023-04-27T03:41:35.169Z,98622.09
2023-04-27T03:44:02.107Z,98625.56
2023-04-27T03:46:29.185Z,98634.97
2023-04-27T03:48:56.261Z,98634.97
2023-04-27T03:51:23.188Z,98635.78
2023-04-27T03:53:50.101Z,98643.53
2023-04-27T03:56:17.121Z,98635.38
2023-04-27T03:58:43.996Z,98645.75
2023-04-27T04:01:11.235Z,98642.81
2023-04-27T04:03:38.248Z,98644.19
2023-04-27T04:06:05.789Z,98647.72
2023-04-27T04:08:34.465Z,98644.63
2023-04-27T04:11:01.609Z,98658.06
2023-04-27T04:13:28.556Z,98655.41
2023-04-27T04:16:08.433Z,98654.00
2023-04-27T04:18:36.435Z,98647.00
2023-04-27T04:21:03.958Z,98654.69
2023-04-27T04:23:30.925Z,98651.75
2023-04-27T04:25:57.962Z,98645.81
2023-04-27T04:28:25.683Z,98656.22
2023-04-27T04:30:52.732Z,98655.88
2023-04-27T04:33:19.791Z,98662.28
2023-04-27T04:35:47.212Z,98653.38
2023-04-27T04:38:14.348Z,98655.25
2023-04-27T04:40:43.841Z,98668.28
2023-04-27T04:43:13.698Z,98674.91
2023-04-27T04:45:40.792Z,98668.72
2023-04-27T04:48:08.859Z,98672.09
2023-04-27T04:50:36.349Z,98661.72
2023-04-27T04:53:03.302Z,98656.75
2023-04-27T04:55:30.268Z,98684.50
2023-04-27T04:57:57.148Z,98671.03
2023-04-27T05:00:24.097Z,98681.16
2023-04-27T05:02:51.199Z,98687.34
2023-04-27T05:05:18.215Z,98671.06
2023-04-27T05:07:45.184Z,98686.94
2023-04-27T05:10:12.434Z,98681.06
2023-04-27T05:12:39.452Z,98685.75
2023-04-27T05:15:07.049Z,98678.16
2023-04-27T05:17:34.038Z,98673.41
2023-04-27T05:20:01.206Z,98679.22
2023-04-27T05:22:28.124Z,98683.66
2023-04-27T05:24:55.798Z,98674.09
2023-04-27T05:27:22.721Z,98680.88
2023-04-27T05:29:49.722Z,98686.47
2023-04-27T05:32:16.620Z,98689.44
2023-04-27T05:34:46.706Z,98697.41
2023-04-27T05:37:14.901Z,98694.91
2023-04-27T05:39:42.574Z,98690.19
2023-04-27T05:42:09.573Z,98701.94
2023-04-27T05:44:36.538Z,98703.47
2023-04-27T05:47:03.500Z,98707.25
2023-04-27T05:49:30.480Z,98708.56
2023-04-27T05:51:59.215Z,98703.72
2023-04-27T05:54:27.716Z,98703.44
2023-04-27T05:56:54.674Z,98708.78
2023-04-27T05:59:22.141Z,98708.44
2023-04-27T06:01:49.299Z,98711.88
2023-04-27T06:04:16.816Z,98707.63
2023-04-27T06:06:45.058Z,98703.56
2023-04-27T06:09:12.147Z,98718.91
2023-04-27T06:11:39.210Z,98713.25
2023-04-27T06:14:06.173Z,98710.81
2023-04-27T06:16:33.621Z,98706.97
2023-04-27T06:19:00.575Z,98714.56
2023-04-27T06:21:28.421Z,98718.47
2023-04-27T06:23:55.367Z,98718.88
2023-04-27T06:26:22.317Z,98721.72
2023-04-27T06:28:49.457Z,98727.69
2023-04-27T06:31:16.747Z,98726.31
2023-04-27T06:33:43.902Z,98722.97
2023-04-27T06:36:11.076Z,98722.84
2023-04-27T06:38:38.018Z,98721.06
2023-04-27T06:41:05.176Z,98727.97
2023-04-27T06:43:32.123Z,98727.50
2023-04-27T06:45:59.017Z,98723.56
2023-04-27T06:48:26.029Z,98721.50
2023-04-27T06:50:52.953Z,98727.13
2023-04-27T06:53:19.890Z,98719.97
2023-04-27T06:55:48.572Z,98721.13
2023-04-27T06:58:15.780Z,98717.78
2023-04-27T07:00:42.845Z,98722.09
2023-04-27T07:03:09.914Z,98714.63
2023-04-27T07:05:36.906Z,98716.50
2023-04-27T07:08:07.216Z,98730.25
2023-04-27T07:10:35.827Z,98728.03
2023-04-27T07:13:02.764Z,98724.19
2023-04-27T07:15:31.827Z,98689.50
2023-04-27T07:17:58.874Z,98726.41
2023-04-27T07:20:26.028Z,98722.13
2023-04-27T07:22:52.948Z,98729.50
2023-04-27T07:25:20.135Z,98730.75
2023-04-27T07:27:47.077Z,98731.66
2023-04-27T07:30:14.598Z,98736.94
2023-04-27T07:32:42.107Z,98731.56
2023-04-27T07:35:12.321Z,98721.97
2023-04-27T07:37:39.281Z,98716.50
2023-04-27T07:40:14.884Z,98721.66
2023-04-27T07:42:42.367Z,98718.44
2023-04-27T07:45:10.133Z,98724.66
2023-04-27T07:47:37.487Z,98718.22
2023-04-27T07:50:04.989Z,98717.53
2023-04-27T07:52:32.235Z,98718.69
2023-04-27T07:54:59.147Z,98717.59
2023-04-27T07:57:26.346Z,98720.28
2023-04-27T07:59:53.660Z,98727.19
2023-04-27T08:02:20.800Z,98724.47
2023-04-27T08:04:48.947Z,98726.66
2023-04-27T08:07:18.079Z,98731.25
2023-04-27T08:09:45.433Z,98735.50
2023-04-27T08:12:12.414Z,98728.13
2023-04-27T08:14:39.385Z,98726.41
2023-04-27T08:17:06.579Z,98729.94
2023-04-27T08:19:33.552Z,98724.72
2023-04-27T08:22:01.108Z,98722.06
2023-04-27T08:24:27.984Z,98725.97
2023-04-27T08:26:54.972Z,98733.94
2023-04-27T08:29:27.900Z,98724.66
2023-04-27T08:31:56.948Z,98725.94
2023-04-27T08:34:24.308Z,98726.41
2023-04-27T08:36:51.437Z,98717.41
2023-04-27T08:39:18.554Z,98737.47
2023-04-27T08:41:46.534Z,98746.84
2023-04-27T08:44:13.626Z,98760.28
2023-04-27T08:46:41.225Z,98760.00
2023-04-27T08:49:08.335Z,98748.19
2023-04-27T08:51:35.656Z,98739.50
2023-04-27T08:54:02.666Z,98740.59
2023-04-27T08:56:30.865Z,98744.88
2023-04-27T08:58:59.092Z,98747.72
2023-04-27T09:01:27.621Z,98746.06
2023-04-27T09:03:59.991Z,98738.88
2023-04-27T09:06:34.151Z,98734.94
2023-04-27T09:09:02.200Z,98726.72
2023-04-27T09:11:33.441Z,98738.91
2023-04-27T09:14:02.009Z,98739.38
2023-04-27T09:16:30.391Z,98727.75
2023-04-27T09:18:58.660Z,98718.38
2023-04-27T09:21:31.425Z,98729.16
2023-04-27T09:23:58.677Z,98735.16
2023-04-27T09:26:28.060Z,98742.50
2023-04-27T09:28:59.037Z,98736.63
2023-04-27T09:31:35.722Z,98741.84
2023-04-27T09:34:03.296Z,98737.84
2023-04-27T09:36:32.653Z,98735.25
2023-04-27T09:39:04.918Z,98737.75
2023-04-27T09:41:33.426Z,98740.25
2023-04-27T09:44:02.512Z,98727.44
2023-04-27T09:46:30.233Z,98670.25
2023-04-27T09:48:57.847Z,98725.03
2023-04-27T09:51:24.941Z,98722.34
2023-04-27T09:53:59.007Z,98726.50
2023-04-27T09:56:31.946Z,98716.13
2023-04-27T09:59:37.513Z,98717.00
2023-04-27T10:02:20.941Z,98722.59
2023-04-27T10:05:22.602Z,98719.69
2023-04-27T10:07:50.012Z,98721.13
2023-04-27T10:10:21.178Z,98724.59
2023-04-27T10:13:03.879Z,98725.97
2023-04-27T10:15:30.914Z,98732.78
2023-04-27T10:18:05.050Z,98731.84
2023-04-27T10:20:33.988Z,98726.97
2023-04-27T10:23:01.200Z,98737.41
2023-04-27T10:25:41.805Z,98737.84
2023-04-27T10:28:15.471Z,98738.97
2023-04-27T10:30:46.893Z,98732.56
2023-04-27T10:33:17.977Z,98735.16
2023-04-27T10:35:54.253Z,98727.44
2023-04-27T10:38:27.150Z,98736.63
2023-04-27T10:41:02.697Z,98729.56
2023-04-27T10:43:32.027Z,98736.97
2023-04-27T10:46:13.921Z,98741.31
2023-04-27T10:48:42.713Z,98728.63
2023-04-27T10:51:09.988Z,98738.84
2023-04-27T10:53:37.796Z,98735.66
2023-04-27T10:56:07.184Z,98735.75
2023-04-27T10:58:47.938Z,98735.63
2023-04-27T11:01:27.114Z,98736.53
2023-04-27T11:04:01.622Z,98730.94
2023-04-27T11:06:30.529Z,98736.28
2023-04-27T11:08:57.574Z,98732.34
2023-04-27T11:11:25.361Z,98731.97
2023-04-27T11:14:03.725Z,98730.84
2023-04-27T11:16:33.690Z,98734.53
2023-04-27T11:19:07.113Z,98734.84
2023-04-27T11:21:34.202Z,98726.53
2023-04-27T11:24:06.339Z,98735.22
2023-04-27T11:26:33.594Z,98728.34
2023-04-27T11:29:02.477Z,98726.91
2023-04-27T11:31:39.915Z,98721.06
2023-04-27T11:34:08.317Z,98724.19
2023-04-27T11:36:35.191Z,98728.00
2023-04-27T11:39:02.233Z,98725.84
2023-04-27T11:41:38.171Z,98735.13
2023-04-27T11:44:09.406Z,98717.16
2023-04-27T11:46:38.247Z,98733.16
2023-04-27T11:49:06.796Z,98738.22
2023-04-27T11:51:33.809Z,98741.09
2023-04-27T11:54:06.315Z,98727.25
2023-04-27T11:56:39.130Z,98742.22
2023-04-27T11:59:06.353Z,98720.56
2023-04-27T12:01:38.136Z,98736.28
2023-04-27T12:04:05.733Z,98733.56
2023-04-27T12:06:33.887Z,98737.81
2023-04-27T12:09:01.163Z,98742.16
2023-04-27T12:11:28.250Z,98742.94
2023-04-27T12:13:55.904Z,98727.19
2023-04-27T12:16:23.237Z,98747.59
2023-04-27T12:18:51.060Z,98751.16
2023-04-27T12:21:18.588Z,98743.56
2023-04-27T12:23:45.489Z,98740.19
2023-04-27T12:26:14.950Z,98744.03
2023-04-27T12:28:42.391Z,98740.66
2023-04-27T12:31:13.441Z,98749.81
2023-04-27T12:33:40.327Z,98740.97
2023-04-27T12:36:07.603Z,98731.03
2023-04-27T12:38:34.569Z,98738.47
2023-04-27T12:41:02.500Z,98737.16
2023-04-27T12:43:29.473Z,98732.13
2023-04-27T12:45:56.597Z,98725.19
2023-04-27T12:48:23.833Z,98737.59
2023-04-27T12:50:51.143Z,98738.94
2023-04-27T12:53:18.149Z,98732.41
2023-04-27T12:55:45.271Z,98723.66
2023-04-27T12:58:12.215Z,98722.41
2023-04-27T13:00:39.427Z,98719.91
2023-04-27T13:03:07.113Z,98736.66
2023-04-27T13:05:34.137Z,98728.09
2023-04-27T13:08:01.145Z,98716.25
2023-04-27T13:10:29.492Z,98724.78
2023-04-27T13:12:56.838Z,98724.78
2023-04-27T13:15:23.815Z,98739.44
2023-04-27T13:17:53.401Z,98727.16
2023-04-27T13:20:20.831Z,98690.66
2023-04-27T13:22:48.591Z,98733.88
2023-04-27T13:25:16.996Z,98730.91
2023-04-27T13:27:43.964Z,98723.69
2023-04-27T13:30:11.120Z,98734.81
2023-04-27T13:32:38.232Z,98698.25
2023-04-27T13:35:05.698Z,98735.03
2023-04-27T13:37:32.690Z,98729.09
2023-04-27T13:39:59.604Z,98732.44
2023-04-27T13:42:29.804Z,98729.97
2023-04-27T13:44:59.491Z,98727.41
2023-04-27T13:47:26.677Z,98738.50
2023-04-27T13:49:53.695Z,98735.84
2023-04-27T13:52:20.636Z,98725.09
2023-04-27T13:54:47.543Z,98735.00
2023-04-27T13:57:14.476Z,98739.53
2023-04-27T13:59:41.365Z,98623.13
2023-04-27T14:02:08.793Z,98739.91
2023-04-27T14:04:35.834Z,98732.28
2023-04-27T14:07:03.379Z,98742.78
2023-04-27T14:09:30.620Z,98750.78
2023-04-27T14:11:58.010Z,98736.94
2023-04-27T14:14:25.219Z,98751.59
2023-04-27T14:16:53.561Z,98757.38
2023-04-27T14:19:20.924Z,98750.16
2023-04-27T14:21:49.984Z,98748.41
2023-04-27T14:24:16.938Z,98758.31
2023-04-27T14:26:44.499Z,98753.22
2023-04-27T14:29:12.042Z,98761.19
2023-04-27T14:31:40.452Z,98759.41
2023-04-27T14:34:08.582Z,98767.44
2023-04-27T14:36:36.163Z,98771.78
2023-04-27T14:39:04.594Z,98769.66
2023-04-27T14:41:31.584Z,98755.66
2023-04-27T14:43:58.639Z,98762.09
2023-04-27T14:46:25.754Z,98767.78
2023-04-27T14:48:52.828Z,98750.56
2023-04-27T14:51:19.924Z,98768.19
2023-04-27T14:53:46.878Z,98758.09
2023-04-27T14:56:13.892Z,98754.69
2023-04-27T14:58:41.719Z,98757.13
2023-04-27T15:01:08.805Z,98767.75
2023-04-27T15:03:35.989Z,98765.75
2023-04-27T15:06:03.315Z,98765.38
2023-04-27T15:08:32.658Z,98768.59
2023-04-27T15:11:01.147Z,98779.50
2023-04-27T15:13:28.765Z,98774.09
2023-04-27T15:15:56.960Z,98770.75
2023-04-27T15:18:24.983Z,98771.44
2023-04-27T15:20:56.737Z,98771.06
2023-04-27T15:23:25.028Z,98763.31
2023-04-27T15:25:56.202Z,98774.00
2023-04-27T15:28:23.941Z,98777.53
2023-04-27T15:30:51.483Z,98784.53
2023-04-27T15:33:18.722Z,98771.72
2023-04-27T15:35:45.800Z,98777.53
2023-04-27T15:38:15.397Z,98775.69
2023-04-27T15:40:42.452Z,98780.53
2023-04-27T15:43:09.485Z,98769.63
2023-04-27T15:45:36.533Z,98779.28
2023-04-27T15:48:03.801Z,98776.03
2023-04-27T15:50:31.092Z,98781.88
2023-04-27T15:52:58.124Z,98777.44
2023-04-27T15:55:25.094Z,98777.16
2023-04-27T15:57:52.006Z,98771.06
2023-04-27T16:00:22.525Z,98772.78
2023-04-27T16:02:49.796Z,98773.63
2023-04-27T16:05:17.279Z,98784.78
2023-04-27T16:07:45.087Z,98780.28
2023-04-27T16:10:13.018Z,98785.81
2023-04-27T16:12:40.295Z,98779.59
2023-04-27T16:15:10.228Z,98777.69
2023-04-27T16:17:37.920Z,98782.59
2023-04-27T16:20:06.971Z,98747.63
2023-04-27T16:22:37.261Z,98781.28
2023-04-27T16:25:10.648Z,98784.63
2023-04-27T16:27:38.850Z,98782.44
2023-04-27T16:30:07.673Z,98778.69
2023-04-27T16:32:35.708Z,98782.25
2023-04-27T16:35:03.351Z,98780.97
2023-04-27T16:37:30.291Z,98795.41
2023-04-27T16:40:01.732Z,98800.25
2023-04-27T16:42:28.884Z,98777.69
2023-04-27T16:44:55.950Z,98789.88
2023-04-27T16:47:23.127Z,98780.50
2023-04-27T16:49:50.085Z,98792.78
2023-04-27T16:52:18.179Z,98794.34
2023-04-27T16:54:45.132Z,98799.84
2023-04-27T16:57:13.415Z,98796.25
2023-04-27T16:59:40.884Z,98784.63
2023-04-27T17:02:22.959Z,98800.41
2023-04-27T17:04:51.456Z,98799.28
2023-04-27T17:07:18.878Z,98793.66
2023-04-27T17:09:45.973Z,98795.13
2023-04-27T17:12:14.116Z,98801.19
2023-04-27T17:14:41.204Z,98801.75
2023-04-27T17:17:08.181Z,98800.53
2023-04-27T17:19:35.153Z,98808.16
2023-04-27T17:22:02.081Z,98805.25
2023-04-27T17:24:28.959Z,98807.38
2023-04-27T17:26:55.953Z,98813.53
2023-04-27T17:29:22.911Z,98805.34
2023-04-27T17:31:50.720Z,98809.72
2023-04-27T17:34:17.843Z,98813.34
2023-04-27T17:36:44.781Z,98808.13
2023-04-27T17:39:13.764Z,98809.25
2023-04-27T17:41:41.347Z,98810.38
2023-04-27T17:44:08.402Z,98816.41
2023-04-27T17:46:38.064Z,98797.16
2023-04-27T17:49:05.095Z,98817.78
2023-04-27T17:51:33.054Z,98820.31
2023-04-27T17:53:59.944Z,98820.31
2023-04-27T17:56:27.001Z,98810.94
2023-04-27T17:58:53.885Z,98812.13
2023-04-27T18:01:20.973Z,98816.19
2023-04-27T18:03:49.170Z,98805.69
2023-04-27T18:06:16.260Z,98820.25
2023-04-27T18:08:43.155Z,98819.50
2023-04-27T18:11:10.094Z,98788.38
2023-04-27T18:14:43.088Z,98836.47
2023-04-27T18:17:10.075Z,98820.31
2023-04-27T18:19:36.990Z,98843.16
2023-04-27T18:22:03.947Z,98840.56
2023-04-27T18:24:31.465Z,98836.22
2023-04-27T18:26:58.357Z,98825.66
2023-04-27T18:29:25.289Z,98844.06
2023-04-27T18:31:53.596Z,98828.97
2023-04-27T18:34:20.623Z,98840.88
2023-04-27T18:36:51.858Z,98845.97
2023-04-27T18:39:19.398Z,98848.34
2023-04-27T18:41:46.554Z,98852.69
2023-04-27T18:44:13.728Z,98838.75
2023-04-27T18:46:40.842Z,98855.53
2023-04-27T18:49:07.751Z,98861.22
2023-04-27T18:51:34.914Z,98851.44
2023-04-27T18:54:01.821Z,98843.72
2023-04-27T18:56:28.854Z,98857.13
2023-04-27T18:58:56.193Z,98860.44
2023-04-27T19:01:27.976Z,98861.09
2023-04-27T19:03:55.360Z,98860.41
2023-04-27T19:06:22.555Z,98865.66
2023-04-27T19:08:49.629Z,98847.03
2023-04-27T19:11:16.671Z,98855.22
2023-04-27T19:13:45.376Z,98854.19
2023-04-27T19:16:12.499Z,98858.06
2023-04-27T19:18:40.878Z,98854.91
2023-04-27T19:21:10.127Z,98854.91
2023-04-27T19:23:37.206Z,98854.22
2023-04-27T19:26:12.429Z,98862.84
2023-04-27T19:28:40.726Z,98848.31
2023-04-27T19:31:07.878Z,98846.84
2023-04-27T19:33:34.987Z,98827.25
2023-04-27T19:36:01.974Z,98875.75
2023-04-27T19:38:29.682Z,98873.41
2023-04-27T19:40:56.678Z,98868.38
2023-04-27T19:43:23.655Z,98886.91
2023-04-27T19:45:51.379Z,98881.38
2023-04-27T19:48:18.442Z,98844.41
2023-04-27T19:50:45.364Z,98872.13
2023-04-27T19:53:12.502Z,98878.88
2023-04-27T19:55:40.692Z,98889.75
2023-04-27T19:58:07.690Z,98875.44
2023-04-27T20:00:34.683Z,98884.59
2023-04-27T20:03:01.822Z,98883.91
2023-04-27T20:05:29.162Z,98874.19
2023-04-27T20:07:56.254Z,98890.56
2023-04-27T20:10:23.206Z,98882.13
2023-04-27T20:12:56.804Z,98881.66
2023-04-27T20:15:24.998Z,98888.97
2023-04-27T20:17:55.304Z,98890.69
2023-04-27T20:20:22.351Z,98875.00
2023-04-27T20:22:49.739Z,98893.59
2023-04-27T20:25:16.660Z,98893.59
2023-04-27T20:27:43.712Z,98892.63
2023-04-27T20:30:11.102Z,98901.28
2023-04-27T20:32:39.775Z,98860.59
2023-04-27T20:35:11.572Z,98889.16
2023-04-27T20:37:39.566Z,98887.16
2023-04-27T20:40:08.021Z,98885.22
2023-04-27T20:42:34.994Z,98888.13
2023-04-27T20:45:02.223Z,98887.56
2023-04-27T20:47:29.348Z,98893.50
2023-04-27T20:49:56.463Z,98892.81
2023-04-27T20:52:23.588Z,98857.19
2023-04-27T20:54:51.227Z,98892.22
2023-04-27T20:57:18.129Z,98888.97
2023-04-27T20:59:45.040Z,98878.84
2023-04-27T21:02:12.107Z,98887.84
2023-04-27T21:04:39.695Z,98874.94
2023-04-27T21:07:07.034Z,98874.66
2023-04-27T21:09:34.009Z,98887.66
2023-04-27T21:12:01.023Z,98890.66
2023-04-27T21:14:27.974Z,98889.38
2023-04-27T21:16:55.100Z,98885.72
2023-04-27T21:19:22.296Z,98888.06
2023-04-27T21:21:49.214Z,98879.81
2023-04-27T21:24:16.169Z,98896.53
2023-04-27T21:26:43.087Z,98893.88
2023-04-27T21:29:10.079Z,98886.28
2023-04-27T21:31:37.122Z,98894.75
2023-04-27T21:34:04.386Z,98893.34
2023-04-27T21:36:33.152Z,98882.81
2023-04-27T21:39:00.132Z,98892.53
2023-04-27T21:41:27.218Z,98874.69
2023-04-27T21:43:54.188Z,98892.78
2023-04-27T21:46:23.732Z,98892.91
2023-04-27T21:48:50.871Z,98902.22
2023-04-27T21:51:17.880Z,98896.78
2023-04-27T21:53:44.756Z,98854.69
2023-04-27T21:56:11.806Z,98894.41
2023-04-27T21:58:38.743Z,98886.59
2023-04-27T22:01:05.781Z,98901.53
2023-04-27T22:03:32.963Z,98894.50
2023-04-27T22:06:00.002Z,98900.38
2023-04-27T22:08:26.946Z,98906.69
2023-04-27T22:10:53.881Z,98905.31
2023-04-27T22:13:20.909Z,98902.19
2023-04-27T22:15:48.416Z,98915.56
2023-04-27T22:18:16.083Z,98900.38
2023-04-27T22:20:44.512Z,98912.44
2023-04-27T22:23:11.803Z,98912.44
2023-04-27T22:25:38.791Z,98897.66
2023-04-27T22:28:05.761Z,98906.19
2023-04-27T22:30:32.740Z,98897.06
2023-04-27T22:32:59.788Z,98904.44
2023-04-27T22:35:27.865Z,98896.88
2023-04-27T22:37:59.326Z,98891.81
2023-04-27T22:40:26.503Z,98889.03
2023-04-27T22:42:55.158Z,98875.53
2023-04-27T22:45:23.266Z,98885.63
2023-04-27T22:47:50.350Z,98897.28
2023-04-27T22:50:17.709Z,98903.03
2023-04-27T22:52:44.751Z,98896.97
2023-04-27T22:55:12.572Z,98903.00
2023-04-27T22:57:41.341Z,98899.72
2023-04-27T23:00:12.127Z,98883.44
2023-04-27T23:02:40.712Z,98880.78
2023-04-27T23:05:08.429Z,98901.81
2023-04-27T23:07:36.336Z,98903.91
2023-04-27T23:10:03.714Z,98902.75
2023-04-27T23:12:31.583Z,98897.56
2023-04-27T23:14:59.538Z,98898.25
2023-04-27T23:17:31.114Z,98890.56
2023-04-27T23:19:59.104Z,98903.19
2023-04-27T23:22:26.935Z,98900.09
2023-04-27T23:24:54.609Z,98900.09
2023-04-27T23:27:22.801Z,98905.00
2023-04-27T23:29:49.721Z,98907.34
2023-04-27T23:32:17.340Z,98903.44
2023-04-27T23:34:44.229Z,98882.38
2023-04-27T23:37:11.220Z,98908.69
2023-04-27T23:39:38.575Z,98908.25
2023-04-27T23:42:05.593Z,98907.41
2023-04-27T23:44:32.533Z,98905.66
2023-04-27T23:46:59.437Z,98896.94
2023-04-27T23:49:26.409Z,98892.47
2023-04-27T23:51:53.343Z,98894.16
2023-04-27T23:54:20.293Z,98890.50
2023-04-27T23:56:47.464Z,98889.06
2023-04-27T23:59:15.231Z,98887.78
